Time;durP1;ratioP1;P1;durP2;ratioP2;P2;SDS_P1;SDS_P2;PMS_P1;PMS_P2;Temp;Humidity;BMP_temperature;BMP_pressure;BME280_temperature;BME280_humidity;BME280_pressure;Samples;Min_cycle;Max_cycle;Signal;HPM_P1;HPM_P2
2023/06/03 00:01:27;;;;;;;12.73;5.38;;;15.20;99.90;;;;;;4823976;29;20033;-60
2023/06/03 00:03:54;;;;;;;8.57;4.82;;;15.20;1.00;;;;;;4823890;29;20068;-60
2023/06/03 00:06:20;;;;;;;11.63;5.53;;;15.10;1.00;;;;;;4837716;29;20041;-60
2023/06/03 00:08:45;;;;;;;11.45;5.47;;;15.10;1.00;;;;;;4823879;29;20026;-59
2023/06/03 00:11:11;;;;;;;14.48;5.13;;;15.00;1.00;;;;;;4823558;29;20402;-60
2023/06/03 00:13:38;;;;;;;9.88;5.25;;;15.00;1.00;;;;;;4837672;29;20038;-58
2023/06/03 00:16:04;;;;;;;13.15;5.82;;;14.90;1.00;;;;;;4823637;29;20034;-60
2023/06/03 00:18:30;;;;;;;16.00;5.75;;;14.80;90.20;;;;;;4823764;29;20030;-59
2023/06/03 00:20:56;;;;;;;17.52;5.68;;;14.80;99.90;;;;;;4823479;29;20031;-60
2023/06/03 00:23:22;;;;;;;10.70;5.22;;;14.80;99.90;;;;;;4823519;29;20102;-59
2023/06/03 00:25:48;;;;;;;8.82;4.95;;;14.70;99.90;;;;;;4823301;29;20050;-61
2023/06/03 00:28:13;;;;;;;16.08;5.68;;;14.60;99.90;;;;;;4837362;29;20026;-59
2023/06/03 00:30:39;;;;;;;8.65;5.13;;;14.70;99.90;;;;;;4823559;29;20035;-60
2023/06/03 00:33:05;;;;;;;15.00;5.78;;;14.60;99.90;;;;;;4823404;29;20045;-59
2023/06/03 00:35:31;;;;;;;17.85;5.35;;;14.60;1.00;;;;;;4837235;29;20027;-60
2023/06/03 00:37:57;;;;;;;16.60;6.38;;;14.60;1.00;;;;;;4823272;29;20362;-59
2023/06/03 00:40:22;;;;;;;15.68;5.47;;;14.60;1.00;;;;;;4823264;29;20140;-60
2023/06/03 00:42:48;;;;;;;9.18;4.88;;;14.60;6.90;;;;;;4823341;29;20728;-58
2023/06/03 00:45:13;;;;;;;16.15;6.32;;;14.60;99.90;;;;;;4823258;29;20060;-60
2023/06/03 00:47:40;;;;;;;15.43;6.32;;;14.60;99.90;;;;;;4823219;29;20039;-58
2023/06/03 00:50:07;;;;;;;16.27;6.25;;;14.60;99.90;;;;;;4823207;29;20031;-59
2023/06/03 00:52:33;;;;;;;14.82;6.80;;;14.60;99.90;;;;;;4823193;29;20069;-60
2023/06/03 00:55:00;;;;;;;17.33;6.82;;;14.60;99.90;;;;;;4822685;29;20027;-60
2023/06/03 00:57:26;;;;;;;14.45;6.82;;;14.60;99.90;;;;;;4822722;29;20026;-59
2023/06/03 00:59:52;;;;;;;16.35;7.07;;;14.60;88.50;;;;;;4823019;29;20030;-59
2023/06/03 01:02:19;;;;;;;14.63;7.63;;;14.60;96.40;;;;;;4823113;29;20095;-60
2023/06/03 01:04:46;;;;;;;11.35;6.85;;;14.50;99.90;;;;;;4823040;29;20487;-59
2023/06/03 01:07:27;;;;;;;16.92;7.25;;;14.50;99.90;;;;;;4822864;29;20092;-58
2023/06/03 01:10:17;;;;;;;13.20;6.60;;;14.40;99.90;;;;;;4823003;29;20034;-59
2023/06/03 01:13:12;;;;;;;10.63;6.70;;;14.40;99.90;;;;;;4823113;29;20041;-59
2023/06/03 01:15:41;;;;;;;19.52;8.98;;;14.40;99.90;;;;;;4823037;29;20110;-58
2023/06/03 01:18:07;;;;;;;16.40;6.50;;;14.30;99.90;;;;;;4822754;29;20034;-60
2023/06/03 01:20:34;;;;;;;17.08;6.25;;;14.40;74.10;;;;;;4822868;29;20378;-59
2023/06/03 01:23:12;;;;;;;13.73;7.13;;;14.40;81.00;;;;;;4822875;29;20033;-59
2023/06/03 01:25:41;;;;;;;13.73;6.55;;;14.30;99.90;;;;;;4822754;29;20053;-60
2023/06/03 01:28:07;;;;;;;15.40;6.43;;;14.30;98.40;;;;;;4822769;29;20029;-59
2023/06/03 01:30:34;;;;;;;18.48;6.82;;;14.20;99.90;;;;;;4822846;29;20027;-60
2023/06/03 01:33:02;;;;;;;12.10;6.97;;;14.20;99.90;;;;;;4822749;29;20034;-59
2023/06/03 01:35:28;;;;;;;19.35;7.15;;;14.20;52.30;;;;;;4822706;29;20038;-59
2023/06/03 01:37:55;;;;;;;15.88;6.50;;;14.10;44.30;;;;;;4822633;29;20030;-59
2023/06/03 01:40:21;;;;;;;13.98;6.03;;;14.10;99.90;;;;;;4822840;29;20053;-60
2023/06/03 01:42:46;;;;;;;24.70;7.07;;;14.00;99.90;;;;;;4822562;29;20027;-60
2023/06/03 01:45:12;;;;;;;20.50;7.63;;;14.00;99.90;;;;;;4822435;29;20125;-61
2023/06/03 01:47:38;;;;;;;19.92;7.35;;;14.00;99.90;;;;;;4822451;29;20022;-60
2023/06/03 01:50:04;;;;;;;24.63;7.03;;;13.90;99.90;;;;;;4836239;29;20095;-60
2023/06/03 01:52:30;;;;;;;16.58;6.65;;;13.90;99.90;;;;;;4822558;29;20053;-59
2023/06/03 01:54:55;;;;;;;16.77;7.88;;;13.90;99.90;;;;;;4822379;29;20039;-60
2023/06/03 01:57:21;;;;;;;15.52;6.95;;;13.80;99.90;;;;;;4822498;29;20539;-58
2023/06/03 01:59:47;;;;;;;11.65;6.15;;;13.80;99.90;;;;;;4822412;29;20053;-60
2023/06/03 02:02:12;;;;;;;9.32;6.90;;;13.80;1.00;;;;;;4822208;29;20026;-60
2023/06/03 02:04:38;;;;;;;20.88;7.43;;;13.70;1.00;;;;;;4822353;29;20657;-60
2023/06/03 02:07:04;;;;;;;16.85;6.68;;;13.70;1.00;;;;;;4836969;29;20042;-60
2023/06/03 02:09:30;;;;;;;18.55;6.93;;;13.60;1.00;;;;;;4825738;29;20063;-59
2023/06/03 02:11:58;;;;;;;11.75;7.57;;;13.60;81.80;;;;;;4825604;29;20034;-59
2023/06/03 02:14:25;;;;;;;15.05;6.65;;;13.50;99.90;;;;;;4839619;29;20045;-60
2023/06/03 02:16:52;;;;;;;15.02;7.10;;;13.50;99.90;;;;;;4825351;29;20022;-59
2023/06/03 02:19:20;;;;;;;15.27;6.10;;;13.50;99.90;;;;;;4825473;29;20442;-60
2023/06/03 02:21:47;;;;;;;15.02;6.57;;;13.50;99.90;;;;;;4839589;29;20030;-59
2023/06/03 02:24:16;;;;;;;14.52;7.38;;;13.40;1.00;;;;;;4825237;29;20043;-59
2023/06/03 02:26:49;;;;;;;11.43;6.25;;;13.40;1.00;;;;;;4825387;29;20034;-58
2023/06/03 02:29:18;;;;;;;18.27;6.93;;;13.40;1.00;;;;;;4839453;29;20498;-60
2023/06/03 02:31:48;;;;;;;14.45;6.78;;;13.30;89.50;;;;;;4825290;29;20041;-60
2023/06/03 02:34:14;;;;;;;13.52;7.10;;;13.30;1.00;;;;;;4825204;29;20576;-60
2023/06/03 02:36:40;;;;;;;10.63;6.60;;;13.30;1.00;;;;;;4825234;29;20031;-60
2023/06/03 02:39:07;;;;;;;13.95;7.07;;;13.20;33.90;;;;;;4825029;29;20033;-60
2023/06/03 02:41:33;;;;;;;19.77;7.25;;;13.20;99.90;;;;;;4825265;29;20026;-59
2023/06/03 02:43:59;;;;;;;11.20;5.78;;;13.20;99.90;;;;;;4824999;29;20055;-58
2023/06/03 02:46:24;;;;;;;17.25;6.53;;;13.10;1.00;;;;;;4825020;29;20114;-56
2023/06/03 02:48:50;;;;;;;12.77;6.82;;;13.10;99.90;;;;;;4824833;29;20030;-59
2023/06/03 02:51:16;;;;;;;9.23;5.85;;;13.10;99.90;;;;;;4824923;29;20038;-58
2023/06/03 02:53:42;;;;;;;11.38;5.15;;;13.10;99.90;;;;;;4824942;29;20109;-58
2023/06/03 02:56:08;;;;;;;10.13;5.97;;;13.00;99.90;;;;;;4824830;29;20709;-60
2023/06/03 02:58:33;;;;;;;15.60;5.28;;;13.00;99.90;;;;;;4824888;29;20037;-60
2023/06/03 03:00:59;;;;;;;11.88;6.45;;;12.90;1.00;;;;;;4824832;29;20034;-59
2023/06/03 03:03:25;;;;;;;11.38;5.82;;;12.80;1.00;;;;;;4824767;29;20114;-60
2023/06/03 03:05:53;;;;;;;9.60;5.78;;;12.80;1.00;;;;;;4824690;29;20034;-60
2023/06/03 03:08:19;;;;;;;8.15;5.82;;;12.70;1.00;;;;;;4824705;29;20113;-60
2023/06/03 03:10:45;;;;;;;12.02;5.90;;;12.70;1.00;;;;;;4824754;29;20363;-57
2023/06/03 03:13:11;;;;;;;10.48;5.95;;;12.70;99.90;;;;;;4824636;29;20034;-58
2023/06/03 03:15:36;;;;;;;10.85;5.68;;;12.70;99.90;;;;;;4824638;29;20034;-59
2023/06/03 03:18:02;;;;;;;12.15;5.65;;;12.70;99.90;;;;;;4824366;29;20470;-58
2023/06/03 03:20:29;;;;;;;8.55;6.15;;;12.60;88.10;;;;;;4824039;29;20035;-58
2023/06/03 03:22:55;;;;;;;12.13;5.63;;;12.60;1.00;;;;;;4824410;29;20458;-60
2023/06/03 03:25:21;;;;;;;8.30;5.22;;;12.60;1.00;;;;;;4824411;29;20086;-60
2023/06/03 03:27:47;;;;;;;7.40;5.00;;;12.60;1.00;;;;;;4824441;29;20144;-60
2023/06/03 03:30:12;;;;;;;5.85;5.13;;;12.60;99.90;;;;;;4824184;29;20195;-60
2023/06/03 03:32:38;;;;;;;9.07;4.97;;;12.60;99.90;;;;;;4824597;29;20125;-60
2023/06/03 03:35:15;;;;;;;15.95;4.93;;;12.60;1.00;;;;;;4838188;29;20034;-59
2023/06/03 03:37:42;;;;;;;13.73;4.88;;;12.60;92.60;;;;;;4824303;29;20053;-59
2023/06/03 03:40:21;;;;;;;7.25;4.38;;;12.60;6.20;;;;;;4824143;29;20358;-60
2023/06/03 03:42:51;;;;;;;7.30;4.80;;;12.60;99.90;;;;;;4824317;29;20026;-60
2023/06/03 03:45:19;;;;;;;11.85;5.30;;;12.60;1.00;;;;;;4824258;29;20117;-60
2023/06/03 03:47:50;;;;;;;17.52;4.53;;;12.60;99.90;;;;;;4824139;29;20083;-60
2023/06/03 03:50:41;;;;;;;7.30;4.32;;;12.50;1.00;;;;;;4824150;29;20030;-60
2023/06/03 03:53:09;;;;;;;10.60;4.70;;;12.50;99.90;;;;;;4824013;29;20069;-60
2023/06/03 03:55:49;;;;;;;13.57;4.80;;;12.60;99.90;;;;;;4824052;29;20121;-60
2023/06/03 03:58:42;;;;;;;6.53;4.32;;;12.60;99.90;;;;;;4823997;29;20540;-59
2023/06/03 04:01:12;;;;;;;6.68;3.97;;;12.60;99.90;;;;;;4823883;29;20041;-60
2023/06/03 04:03:45;;;;;;;6.57;4.63;;;12.60;99.90;;;;;;4824027;29;20034;-60
2023/06/03 04:06:14;;;;;;;7.13;4.13;;;12.60;99.90;;;;;;4823865;29;20031;-60
2023/06/03 04:08:47;;;;;;;10.60;4.78;;;12.60;99.90;;;;;;4823942;29;20038;-60
2023/06/03 04:11:37;;;;;;;6.38;3.78;;;12.60;99.90;;;;;;4823763;29;20036;-58
2023/06/03 04:14:08;;;;;;;7.70;4.68;;;12.60;99.90;;;;;;4812609;29;20049;-56
2023/06/03 04:16:51;;;;;;;5.07;3.92;;;12.70;99.90;;;;;;4823678;29;20494;-60
2023/06/03 04:19:36;;;;;;;11.85;5.30;;;12.60;99.90;;;;;;4823611;29;20126;-60
2023/06/03 04:22:05;;;;;;;15.27;4.50;;;12.70;99.90;;;;;;4823584;29;20117;-59
2023/06/03 04:24:33;;;;;;;11.90;4.68;;;12.70;99.90;;;;;;4823531;29;20522;-59
2023/06/03 04:26:59;;;;;;;5.88;4.10;;;12.80;99.90;;;;;;4823491;29;20066;-59
2023/06/03 04:29:24;;;;;;;9.77;4.07;;;12.80;99.90;;;;;;4823614;29;20474;-59
2023/06/03 04:31:50;;;;;;;6.53;4.47;;;12.80;99.90;;;;;;4822309;29;20109;-58
2023/06/03 04:34:16;;;;;;;8.20;4.40;;;12.80;99.90;;;;;;4823378;29;20037;-60
2023/06/03 04:36:50;;;;;;;8.23;4.55;;;12.80;99.90;;;;;;4823447;29;20072;-60
2023/06/03 04:39:17;;;;;;;10.00;4.32;;;12.80;99.90;;;;;;4823498;29;20431;-59
2023/06/03 04:41:43;;;;;;;12.93;4.72;;;12.80;99.90;;;;;;4823422;29;20099;-60
2023/06/03 04:44:11;;;;;;;11.80;4.63;;;12.90;99.90;;;;;;4823092;29;20030;-58
2023/06/03 04:46:37;;;;;;;10.02;4.50;;;12.90;99.90;;;;;;4823321;29;20699;-57
2023/06/03 04:49:03;;;;;;;6.85;4.43;;;12.80;99.90;;;;;;4823216;29;20038;-57
2023/06/03 04:51:33;;;;;;;9.43;4.50;;;12.90;1.00;;;;;;4823280;29;20030;-56
2023/06/03 04:54:00;;;;;;;12.52;5.00;;;12.80;99.90;;;;;;4823060;29;20126;-58
2023/06/03 04:56:29;;;;;;;7.10;4.68;;;12.90;99.90;;;;;;4823048;29;20091;-57
2023/06/03 04:59:03;;;;;;;8.45;4.72;;;12.90;99.90;;;;;;4822954;29;20158;-60
2023/06/03 05:01:31;;;;;;;18.00;6.05;;;12.90;99.90;;;;;;4823169;29;20340;-59
2023/06/03 05:03:57;;;;;;;19.92;5.45;;;12.90;99.90;;;;;;4823080;29;20079;-58
2023/06/03 05:06:23;;;;;;;11.23;4.95;;;12.90;99.90;;;;;;4823063;29;20105;-59
2023/06/03 05:08:50;;;;;;;9.30;4.63;;;13.00;1.00;;;;;;4822938;29;20038;-60
2023/06/03 05:11:17;;;;;;;10.85;4.30;;;13.10;1.00;;;;;;4822901;29;20057;-60
2023/06/03 05:13:43;;;;;;;6.00;4.25;;;13.10;99.90;;;;;;4822398;29;20027;-58
2023/06/03 05:16:08;;;;;;;11.88;5.25;;;13.10;99.90;;;;;;4821361;29;20554;-56
2023/06/03 05:18:35;;;;;;;8.95;4.47;;;13.20;99.90;;;;;;4820811;29;20026;-59
2023/06/03 05:21:02;;;;;;;7.72;4.72;;;13.10;99.90;;;;;;4835330;29;20038;-61
2023/06/03 05:23:28;;;;;;;9.23;4.75;;;13.20;99.90;;;;;;4821737;29;20029;-60
2023/06/03 05:25:53;;;;;;;7.10;4.88;;;13.20;99.90;;;;;;4821234;29;20054;-59
2023/06/03 05:28:19;;;;;;;6.22;4.20;;;13.10;99.90;;;;;;4821769;29;20034;-60
2023/06/03 05:30:45;;;;;;;7.18;4.50;;;13.20;99.90;;;;;;4821661;29;20037;-58
2023/06/03 05:33:29;;;;;;;12.15;5.03;;;13.30;99.90;;;;;;4821507;29;20036;-60
2023/06/03 05:35:56;;;;;;;16.08;4.72;;;13.40;36.80;;;;;;4820584;29;20159;-59
2023/06/03 05:38:22;;;;;;;8.85;4.78;;;13.30;13.70;;;;;;4821612;29;20060;-58
2023/06/03 05:40:51;;;;;;;11.43;4.43;;;13.40;48.60;;;;;;4821543;29;20038;-59
2023/06/03 05:43:17;;;;;;;7.35;5.00;;;13.40;96.30;;;;;;4824113;29;20031;-60
2023/06/03 05:45:43;;;;;;;9.05;5.00;;;13.50;71.70;;;;;;4825012;29;20384;-59
2023/06/03 05:48:10;;;;;;;10.60;3.75;;;13.50;1.00;;;;;;4824986;29;20036;-58
2023/06/03 05:50:49;;;;;;;7.35;4.45;;;13.50;53.40;;;;;;4824951;29;20031;-58
2023/06/03 05:53:20;;;;;;;9.13;4.10;;;13.60;28.10;;;;;;4824757;29;20042;-60
2023/06/03 05:55:46;;;;;;;6.63;4.43;;;13.60;1.00;;;;;;4824847;29;20090;-59
2023/06/03 05:58:12;;;;;;;9.25;4.32;;;13.60;1.00;;;;;;4824665;29;20125;-59
2023/06/03 06:00:37;;;;;;;7.10;4.65;;;13.60;1.00;;;;;;4824963;29;20109;-61
2023/06/03 06:03:03;;;;;;;15.20;5.10;;;13.60;1.00;;;;;;4824519;29;20122;-59
2023/06/03 06:05:29;;;;;;;6.15;4.13;;;13.60;1.00;;;;;;4824527;29;20483;-60
2023/06/03 06:07:55;;;;;;;7.32;4.55;;;13.70;1.00;;;;;;4824403;29;20495;-60
2023/06/03 06:10:20;;;;;;;6.45;4.20;;;13.90;39.90;;;;;;4824584;29;20099;-60
2023/06/03 06:12:46;;;;;;;9.10;4.15;;;14.00;1.00;;;;;;4824754;29;20471;-60
2023/06/03 06:15:13;;;;;;;10.90;4.82;;;14.20;1.00;;;;;;4824221;29;20461;-60
2023/06/03 06:17:39;;;;;;;10.10;4.70;;;14.00;99.90;;;;;;4824765;29;20023;-60
2023/06/03 06:20:06;;;;;;;6.55;3.72;;;14.10;99.90;;;;;;4824133;29;20023;-59
2023/06/03 06:22:32;;;;;;;7.57;4.72;;;14.10;99.90;;;;;;4824372;29;20113;-59
2023/06/03 06:24:58;;;;;;;9.20;4.03;;;14.10;99.90;;;;;;4824086;29;20121;-61
2023/06/03 06:27:24;;;;;;;6.75;3.97;;;14.20;99.90;;;;;;4824268;29;20447;-61
2023/06/03 06:29:51;;;;;;;8.35;4.32;;;14.30;99.90;;;;;;4824161;29;20110;-60
2023/06/03 06:32:22;;;;;;;7.70;4.68;;;14.30;99.90;;;;;;4824343;29;20022;-60
2023/06/03 06:34:48;;;;;;;11.30;5.00;;;14.30;99.90;;;;;;4824027;29;20057;-60
2023/06/03 06:37:14;;;;;;;9.68;5.80;;;14.30;47.30;;;;;;4823834;29;20035;-61
2023/06/03 06:39:51;;;;;;;13.23;4.32;;;14.30;99.90;;;;;;4824042;29;20099;-60
2023/06/03 06:42:25;;;;;;;7.30;4.25;;;14.50;97.00;;;;;;4824040;29;20091;-61
2023/06/03 06:44:51;;;;;;;10.00;4.15;;;14.60;99.90;;;;;;4823674;29;20026;-61
2023/06/03 06:47:25;;;;;;;9.88;3.47;;;14.50;1.00;;;;;;4824306;29;20134;-59
2023/06/03 06:49:52;;;;;;;8.65;4.57;;;14.60;41.10;;;;;;4837955;29;20026;-60
2023/06/03 06:52:19;;;;;;;9.45;4.93;;;14.90;87.20;;;;;;4823943;29;20038;-59
2023/06/03 06:54:45;;;;;;;11.68;4.50;;;15.00;1.00;;;;;;4822820;29;20085;-55
2023/06/03 06:57:17;;;;;;;9.25;3.83;;;14.90;1.00;;;;;;4823506;29;20395;-60
2023/06/03 06:59:43;;;;;;;12.35;4.07;;;15.00;1.00;;;;;;4823822;29;20106;-61
2023/06/03 07:02:09;;;;;;;7.90;4.00;;;14.80;1.00;;;;;;4823622;29;20035;-59
2023/06/03 07:04:35;;;;;;;9.63;4.50;;;14.80;1.00;;;;;;4837782;29;20127;-58
2023/06/03 07:07:00;;;;;;;10.70;4.20;;;14.80;1.00;;;;;;4823517;29;20461;-58
2023/06/03 07:09:26;;;;;;;7.22;3.90;;;14.90;1.00;;;;;;4823644;29;20034;-60
2023/06/03 07:11:51;;;;;;;5.90;4.38;;;14.90;1.00;;;;;;4823451;29;20394;-58
2023/06/03 07:14:17;;;;;;;9.15;4.45;;;15.10;1.00;;;;;;4823438;29;20501;-58
2023/06/03 07:16:43;;;;;;;6.75;3.78;;;15.20;99.90;;;;;;4823558;29;20102;-59
2023/06/03 07:19:09;;;;;;;11.13;4.45;;;15.20;99.90;;;;;;4823428;29;20038;-58
2023/06/03 07:21:35;;;;;;;7.38;4.38;;;15.30;99.90;;;;;;4823470;29;20458;-59
2023/06/03 07:24:01;;;;;;;10.95;4.40;;;15.40;1.00;;;;;;4823069;29;20390;-60
2023/06/03 07:26:28;;;;;;;12.25;4.15;;;15.60;99.90;;;;;;4823316;29;20069;-60
2023/06/03 07:28:57;;;;;;;10.98;4.70;;;15.70;99.90;;;;;;4823157;29;20513;-59
2023/06/03 07:31:23;;;;;;;4.97;3.53;;;15.80;99.90;;;;;;4823453;29;20086;-60
2023/06/03 07:33:52;;;;;;;6.07;4.15;;;15.80;99.90;;;;;;4823203;29;20069;-58
2023/06/03 07:36:24;;;;;;;11.30;3.88;;;15.90;99.90;;;;;;4823056;29;20031;-59
2023/06/03 07:39:05;;;;;;;21.50;4.03;;;16.20;99.90;;;;;;4823008;29;20475;-60
2023/06/03 07:41:43;;;;;;;13.48;3.65;;;16.20;99.90;;;;;;4823178;29;20064;-59
2023/06/03 07:44:13;;;;;;;8.40;3.50;;;16.20;99.90;;;;;;4822969;29;20056;-58
2023/06/03 07:46:43;;;;;;;6.70;3.83;;;16.40;99.90;;;;;;4823181;29;20022;-61
2023/06/03 07:49:14;;;;;;;3.90;3.13;;;16.30;99.90;;;;;;4822915;29;20121;-60
2023/06/03 07:51:43;;;;;;;7.78;3.75;;;16.30;99.20;;;;;;4836853;29;20123;-60
2023/06/03 07:54:10;;;;;;;12.57;3.58;;;16.30;90.40;;;;;;4822780;29;20122;-57
2023/06/03 07:56:35;;;;;;;11.25;3.70;;;16.20;48.60;;;;;;4836793;29;20034;-59
2023/06/03 07:59:06;;;;;;;8.40;3.67;;;16.30;99.90;;;;;;4822905;29;20486;-60
2023/06/03 08:01:35;;;;;;;7.30;3.50;;;16.50;66.50;;;;;;4822780;29;20023;-60
2023/06/03 08:04:17;;;;;;;11.55;3.60;;;16.50;68.90;;;;;;4822661;29;20056;-61
2023/06/03 08:06:44;;;;;;;9.93;4.10;;;16.60;52.10;;;;;;4822598;29;20079;-60
2023/06/03 08:09:27;;;;;;;8.60;3.92;;;16.60;38.00;;;;;;4822517;29;20026;-59
2023/06/03 08:11:55;;;;;;;9.00;4.15;;;16.40;1.00;;;;;;4822466;29;20306;-60
2023/06/03 08:14:21;;;;;;;11.55;4.25;;;16.30;1.00;;;;;;4822647;29;20083;-59
2023/06/03 08:16:47;;;;;;;15.50;4.65;;;16.40;22.00;;;;;;4822544;29;20027;-59
2023/06/03 08:19:16;;;;;;;8.90;4.65;;;16.80;63.50;;;;;;4822392;29;20113;-59
2023/06/03 08:21:44;;;;;;;18.88;6.80;;;16.90;6.90;;;;;;4822481;29;20026;-60
2023/06/03 08:24:10;;;;;;;13.25;5.03;;;17.10;1.00;;;;;;4822223;29;20041;-61
2023/06/03 08:26:38;;;;;;;6.00;4.18;;;17.30;5.60;;;;;;4822387;29;20313;-61
2023/06/03 08:29:04;;;;;;;16.90;4.55;;;17.30;1.00;;;;;;4822417;29;20030;-60
2023/06/03 08:31:33;;;;;;;11.27;3.47;;;17.20;1.00;;;;;;4822388;29;20035;-59
2023/06/03 08:34:00;;;;;;;5.82;3.00;;;17.40;1.00;;;;;;4822059;29;20039;-60
2023/06/03 08:36:26;;;;;;;6.18;3.80;;;17.50;1.00;;;;;;4822153;29;20031;-59
2023/06/03 08:38:52;;;;;;;6.70;3.58;;;17.40;1.00;;;;;;4822222;29;20090;-60
2023/06/03 08:41:18;;;;;;;13.35;3.67;;;17.60;1.00;;;;;;4822328;29;20044;-59
2023/06/03 08:43:50;;;;;;;8.80;3.85;;;17.60;1.00;;;;;;4822345;29;20405;-59
2023/06/03 08:46:30;;;;;;;12.80;3.67;;;17.80;1.00;;;;;;4822175;29;20095;-61
2023/06/03 08:49:04;;;;;;;11.23;3.65;;;17.80;1.00;;;;;;4822191;29;20053;-60
2023/06/03 08:51:36;;;;;;;10.82;3.70;;;17.70;1.00;;;;;;4822123;29;20026;-60
2023/06/03 08:54:08;;;;;;;11.35;4.10;;;17.80;1.00;;;;;;4822002;29;20494;-60
2023/06/03 08:56:39;;;;;;;9.13;3.90;;;17.90;1.00;;;;;;4822082;29;20061;-60
2023/06/03 08:59:07;;;;;;;13.23;4.13;;;18.20;1.00;;;;;;4821924;29;20035;-59
2023/06/03 09:01:37;;;;;;;7.15;3.83;;;18.20;1.00;;;;;;4821882;29;20022;-59
2023/06/03 09:04:03;;;;;;;5.63;3.25;;;18.10;1.00;;;;;;4821845;29;20487;-60
2023/06/03 09:06:30;;;;;;;14.65;4.45;;;18.00;1.00;;;;;;4821890;29;20026;-59
2023/06/03 09:08:57;;;;;;;8.38;3.80;;;18.00;1.00;;;;;;4821859;29;20030;-59
2023/06/03 09:11:25;;;;;;;7.53;4.07;;;18.10;1.00;;;;;;4821912;29;20045;-60
2023/06/03 09:13:52;;;;;;;6.78;3.60;;;18.10;1.00;;;;;;4821645;29;20065;-60
2023/06/03 09:16:19;;;;;;;12.63;4.20;;;18.30;1.00;;;;;;4821359;29;20491;-60
2023/06/03 09:18:49;;;;;;;10.68;4.47;;;18.40;1.00;;;;;;4821753;29;20035;-59
2023/06/03 09:21:15;;;;;;;11.10;4.13;;;18.50;1.00;;;;;;4821581;29;20027;-60
2023/06/03 09:23:41;;;;;;;15.07;3.95;;;18.30;1.00;;;;;;4821728;29;20027;-60
2023/06/03 09:26:07;;;;;;;12.35;3.50;;;18.50;1.00;;;;;;4821355;29;20054;-60
2023/06/03 09:28:36;;;;;;;13.10;4.30;;;18.60;1.00;;;;;;4835504;29;20030;-60
2023/06/03 09:31:06;;;;;;;19.20;4.45;;;18.90;1.00;;;;;;4821664;29;20030;-60
2023/06/03 09:33:32;;;;;;;5.47;3.45;;;19.20;1.00;;;;;;4821591;29;20026;-61
2023/06/03 09:36:13;;;;;;;9.65;3.83;;;19.40;1.00;;;;;;4821377;29;20030;-60
2023/06/03 09:38:46;;;;;;;11.38;6.15;;;19.30;1.00;;;;;;4821537;29;20487;-60
2023/06/03 09:41:17;;;;;;;46.20;19.95;;;19.60;1.00;;;;;;4821370;29;20030;-60
2023/06/03 09:44:01;;;;;;;7.50;3.85;;;19.60;1.00;;;;;;4813277;29;20035;-61
2023/06/03 09:46:29;;;;;;;12.93;4.57;;;19.60;1.00;;;;;;4803473;29;20088;-61
2023/06/03 09:49:13;;;;;;;6.55;3.35;;;19.80;1.00;;;;;;4803378;29;20039;-60
2023/06/03 09:51:46;;;;;;;9.52;3.40;;;19.90;1.00;;;;;;4803406;29;20030;-58
2023/06/03 09:54:15;;;;;;;4.97;3.53;;;20.10;1.00;;;;;;4803204;29;20035;-60
2023/06/03 09:56:42;;;;;;;11.07;4.07;;;20.20;1.00;;;;;;4803034;29;20042;-59
2023/06/03 09:59:23;;;;;;;9.02;3.90;;;20.30;1.00;;;;;;4803136;29;20054;-61
2023/06/03 10:01:54;;;;;;;6.30;4.05;;;20.30;1.00;;;;;;4803021;29;20106;-59
2023/06/03 10:04:38;;;;;;;12.13;3.65;;;20.50;1.00;;;;;;4803399;29;20475;-59
2023/06/03 10:07:16;;;;;;;6.90;4.00;;;20.60;1.00;;;;;;4802876;29;20027;-60
2023/06/03 10:09:44;;;;;;;13.85;3.58;;;20.60;1.00;;;;;;4803113;29;20030;-59
2023/06/03 10:12:12;;;;;;;15.02;3.72;;;20.40;1.00;;;;;;4803019;29;20487;-60
2023/06/03 10:14:48;;;;;;;15.25;4.32;;;20.70;1.00;;;;;;4803023;29;20049;-60
2023/06/03 10:17:15;;;;;;;17.42;4.30;;;20.90;1.00;;;;;;4802954;29;20031;-60
2023/06/03 10:19:43;;;;;;;9.30;3.83;;;20.60;99.90;;;;;;4803083;29;20030;-60
2023/06/03 10:22:12;;;;;;;12.15;4.50;;;20.50;99.90;;;;;;4802871;29;20038;-60
2023/06/03 10:24:42;;;;;;;10.60;3.72;;;20.50;99.90;;;;;;4802805;29;20100;-59
2023/06/03 10:27:12;;;;;;;12.10;4.03;;;20.60;99.90;;;;;;4802915;29;20027;-60
2023/06/03 10:29:38;;;;;;;5.57;3.38;;;20.80;99.90;;;;;;4805944;29;20506;-60
2023/06/03 10:32:10;;;;;;;10.00;3.85;;;20.90;99.90;;;;;;4805917;29;20369;-61
2023/06/03 10:34:39;;;;;;;6.60;3.75;;;21.10;99.90;;;;;;4806397;29;20111;-60
2023/06/03 10:37:06;;;;;;;16.90;3.60;;;21.30;99.90;;;;;;4805923;29;20034;-60
2023/06/03 10:39:32;;;;;;;7.85;3.75;;;21.50;99.90;;;;;;4806124;29;20026;-60
2023/06/03 10:42:03;;;;;;;8.73;3.70;;;21.70;99.90;;;;;;4805935;29;20395;-60
2023/06/03 10:44:30;;;;;;;11.52;3.47;;;21.60;99.90;;;;;;4806063;29;20334;-60
2023/06/03 10:47:04;;;;;;;11.20;3.70;;;21.60;99.90;;;;;;4805952;29;20091;-60
2023/06/03 10:49:48;;;;;;;12.75;3.88;;;21.70;99.90;;;;;;4805932;29;20030;-60
2023/06/03 10:52:50;;;;;;;12.00;3.90;;;21.70;99.90;;;;;;4806065;29;20042;-60
2023/06/03 10:55:49;;;;;;;7.05;3.78;;;21.90;99.90;;;;;;4819531;29;20041;-59
2023/06/03 10:58:24;;;;;;;10.13;3.95;;;22.20;99.90;;;;;;4805680;29;20118;-60
2023/06/03 11:00:53;;;;;;;10.95;3.65;;;22.40;99.90;;;;;;4805692;29;20386;-61
2023/06/03 11:03:21;;;;;;;7.65;3.10;;;22.50;99.90;;;;;;4805594;29;20096;-59
2023/06/03 11:05:47;;;;;;;12.23;3.65;;;21.80;99.90;;;;;;4805676;29;20045;-59
2023/06/03 11:08:13;;;;;;;6.38;3.17;;;21.90;99.90;;;;;;4805654;29;20038;-61
2023/06/03 11:10:43;;;;;;;8.07;3.55;;;22.00;99.90;;;;;;4805559;29;20088;-61
2023/06/03 11:13:11;;;;;;;8.23;4.00;;;22.50;99.90;;;;;;4805604;29;20045;-59
2023/06/03 11:16:01;;;;;;;7.00;3.20;;;22.80;99.90;;;;;;4805412;29;20502;-60
2023/06/03 11:18:30;;;;;;;5.93;3.22;;;22.90;99.90;;;;;;4805451;29;20109;-60
2023/06/03 11:20:57;;;;;;;8.90;3.70;;;23.00;99.90;;;;;;4805296;29;20027;-60
2023/06/03 11:23:42;;;;;;;5.75;3.70;;;23.00;99.90;;;;;;4805563;29;20041;-60
2023/06/03 11:26:33;;;;;;;11.48;3.25;;;23.20;99.90;;;;;;4805203;29;20043;-60
2023/06/03 11:29:02;;;;;;;7.38;3.13;;;23.30;99.90;;;;;;4805045;29;20534;-58
2023/06/03 11:31:29;;;;;;;10.15;3.45;;;23.10;99.90;;;;;;4805129;29;20037;-60
2023/06/03 11:34:25;;;;;;;11.57;3.25;;;23.30;99.90;;;;;;4804991;29;20023;-60
2023/06/03 11:36:51;;;;;;;6.35;3.42;;;23.40;99.90;;;;;;4804785;29;20058;-60
2023/06/03 11:39:18;;;;;;;13.20;3.47;;;23.40;99.90;;;;;;4804836;29;20058;-60
2023/06/03 11:42:00;;;;;;;13.32;3.40;;;23.70;99.90;;;;;;4804917;29;20027;-61
2023/06/03 11:44:25;;;;;;;9.57;3.60;;;23.60;99.90;;;;;;4805250;29;20059;-60
2023/06/03 11:46:52;;;;;;;9.95;4.00;;;23.20;99.90;;;;;;4804424;29;20065;-60
2023/06/03 11:49:22;;;;;;;13.82;4.22;;;23.70;99.90;;;;;;4804904;29;20075;-60
2023/06/03 11:51:52;;;;;;;8.10;3.80;;;23.80;99.90;;;;;;4804882;29;20026;-60
2023/06/03 11:54:20;;;;;;;6.15;3.28;;;24.30;99.90;;;;;;4804794;29;20034;-60
2023/06/03 11:56:51;;;;;;;10.40;4.25;;;24.10;99.90;;;;;;4804735;29;20042;-60
2023/06/03 11:59:19;;;;;;;4.38;3.42;;;24.10;99.90;;;;;;4804800;29;20145;-61
2023/06/03 12:01:58;;;;;;;7.95;3.17;;;24.20;99.90;;;;;;4804540;29;20101;-60
2023/06/03 12:04:24;;;;;;;13.23;4.15;;;24.40;99.90;;;;;;4804605;29;20035;-61
2023/06/03 12:06:51;;;;;;;11.48;3.85;;;24.50;99.90;;;;;;4804629;29;20043;-60
2023/06/03 12:09:19;;;;;;;9.02;3.33;;;24.80;99.90;;;;;;4804575;29;20437;-60
2023/06/03 12:11:44;;;;;;;6.70;3.97;;;24.80;99.90;;;;;;4804524;29;20038;-59
2023/06/03 12:14:25;;;;;;;10.80;4.57;;;25.40;99.90;;;;;;4804240;29;20499;-60
2023/06/03 12:16:51;;;;;;;13.35;3.70;;;26.10;99.90;;;;;;4804348;29;20031;-60
2023/06/03 12:19:17;;;;;;;7.45;3.20;;;25.70;99.90;;;;;;4804378;29;20083;-59
2023/06/03 12:21:43;;;;;;;9.70;3.42;;;26.20;99.90;;;;;;4804320;29;20425;-60
2023/06/03 12:24:09;;;;;;;9.43;3.20;;;26.50;99.90;;;;;;4804103;29;20110;-61
2023/06/03 12:26:41;;;;;;;5.50;2.83;;;27.10;99.90;;;;;;4804273;29;20026;-59
2023/06/03 12:29:11;;;;;;;10.20;2.95;;;27.50;99.90;;;;;;4804196;29;20031;-60
2023/06/03 12:31:37;;;;;;;7.22;3.10;;;27.10;99.90;;;;;;4804107;29;20608;-60
2023/06/03 12:34:03;;;;;;;6.47;2.45;;;27.50;99.90;;;;;;4803987;29;20038;-60
2023/06/03 12:36:49;;;;;;;12.43;3.53;;;28.10;99.90;;;;;;4804137;29;20046;-60
2023/06/03 12:39:15;;;;;;;9.15;3.83;;;27.90;99.90;;;;;;4803883;29;20058;-60
2023/06/03 12:41:52;;;;;;;8.93;3.30;;;28.50;99.90;;;;;;4818118;29;20032;-60
2023/06/03 12:44:18;;;;;;;6.75;2.83;;;28.40;99.90;;;;;;4804332;29;20054;-60
2023/06/03 12:46:43;;;;;;;7.13;3.33;;;28.90;99.90;;;;;;4804080;29;20050;-61
2023/06/03 12:49:16;;;;;;;4.07;2.80;;;28.60;99.90;;;;;;4803868;29;20054;-60
2023/06/03 12:51:42;;;;;;;14.50;2.78;;;28.60;99.90;;;;;;4803071;29;20034;-60
2023/06/03 12:54:08;;;;;;;7.40;3.40;;;28.20;99.90;;;;;;4803715;29;20384;-60
2023/06/03 12:56:34;;;;;;;14.13;2.92;;;28.50;99.90;;;;;;4803723;29;20041;-59